createdAt,value
2018-03-18T00:02:30.765Z,4.40
2018-03-18T00:05:00.548Z,6.85
2018-03-18T00:07:30.494Z,4.87
2018-03-18T00:09:59.969Z,5.25
2018-03-18T00:12:29.105Z,5.90
2018-03-18T00:14:58.541Z,4.00
2018-03-18T00:17:28.931Z,4.87
2018-03-18T00:19:58.049Z,5.05
2018-03-18T00:22:28.040Z,6.05
2018-03-18T00:24:57.714Z,5.70
2018-03-18T00:27:28.315Z,6.35
2018-03-18T00:29:57.777Z,5.40
2018-03-18T00:32:27.208Z,5.45
2018-03-18T00:34:56.580Z,6.47
2018-03-18T00:37:26.739Z,6.05
2018-03-18T00:39:56.860Z,7.43
2018-03-18T00:42:27.417Z,9.43
2018-03-18T00:44:57.259Z,8.75
2018-03-18T00:47:26.972Z,6.32
2018-03-18T00:49:56.220Z,9.68
2018-03-18T00:52:26.618Z,7.20
2018-03-18T00:54:56.607Z,8.82
2018-03-18T00:57:26.389Z,6.62
2018-03-18T00:59:56.288Z,4.87
2018-03-18T01:02:26.297Z,7.53
2018-03-18T01:04:55.375Z,7.25
2018-03-18T01:07:25.027Z,6.60
2018-03-18T01:09:55.193Z,7.47
2018-03-18T01:12:24.439Z,4.97
2018-03-18T01:14:54.758Z,8.98
2018-03-18T01:17:24.842Z,6.12
2018-03-18T01:19:56.040Z,8.02
2018-03-18T01:22:25.294Z,6.57
2018-03-18T01:24:55.498Z,8.40
2018-03-18T01:27:24.846Z,6.22
2018-03-18T01:29:55.178Z,4.80
2018-03-18T01:32:24.952Z,6.05
2018-03-18T01:34:55.245Z,4.68
2018-03-18T01:37:24.972Z,3.90
2018-03-18T01:39:55.559Z,8.73
2018-03-18T01:42:25.025Z,8.48
2018-03-18T01:44:54.767Z,6.07
2018-03-18T01:47:23.326Z,7.55
2018-03-18T01:49:52.910Z,7.65
2018-03-18T01:52:21.874Z,5.25
2018-03-18T01:54:50.680Z,3.87
2018-03-18T01:57:19.624Z,6.12
2018-03-18T01:59:49.295Z,5.37
2018-03-18T02:02:18.192Z,8.55
2018-03-18T02:04:47.421Z,3.95
2018-03-18T02:07:15.755Z,5.18
2018-03-18T02:09:44.400Z,5.40
2018-03-18T02:12:13.950Z,5.37
2018-03-18T02:14:42.864Z,5.40
2018-03-18T02:17:12.465Z,4.72
2018-03-18T02:19:41.737Z,5.68
2018-03-18T02:22:11.512Z,5.45
2018-03-18T02:24:40.462Z,5.28
2018-03-18T02:27:10.027Z,7.35
2018-03-18T02:29:39.150Z,5.25
2018-03-18T02:32:07.645Z,8.07
2018-03-18T02:34:36.188Z,3.80
2018-03-18T02:37:04.756Z,4.82
2018-03-18T02:39:34.276Z,4.32
2018-03-18T02:42:03.924Z,4.25
2018-03-18T02:44:33.268Z,5.72
2018-03-18T02:47:02.401Z,5.35
2018-03-18T02:49:30.868Z,3.25
2018-03-18T02:51:59.801Z,5.62
2018-03-18T02:54:29.197Z,4.45
2018-03-18T02:56:57.654Z,6.03
2018-03-18T02:59:26.038Z,4.50
2018-03-18T03:01:54.432Z,8.10
2018-03-18T03:04:23.593Z,4.20
2018-03-18T03:06:51.948Z,6.25
2018-03-18T03:09:21.672Z,8.45
2018-03-18T03:11:50.379Z,6.22
2018-03-18T03:14:19.522Z,9.18
2018-03-18T03:16:47.896Z,8.32
2018-03-18T03:19:16.860Z,8.35
2018-03-18T03:21:45.345Z,6.28
2018-03-18T03:24:14.728Z,5.87
2018-03-18T03:26:44.132Z,5.72
2018-03-18T03:29:12.473Z,7.57
2018-03-18T03:31:42.423Z,6.85
2018-03-18T03:34:11.004Z,4.50
2018-03-18T03:36:39.897Z,8.00
2018-03-18T03:39:08.667Z,6.55
2018-03-18T03:41:38.263Z,7.95
2018-03-18T03:44:06.526Z,8.30
2018-03-18T03:46:35.273Z,4.60
2018-03-18T03:49:04.251Z,5.82
2018-03-18T03:51:33.119Z,7.57
2018-03-18T03:54:01.275Z,6.90
2018-03-18T03:56:30.099Z,4.43
2018-03-18T03:58:59.982Z,6.10
2018-03-18T04:01:28.658Z,6.75
2018-03-18T04:03:57.853Z,5.87
2018-03-18T04:06:26.470Z,6.60
2018-03-18T04:08:55.146Z,6.68
2018-03-18T04:11:23.564Z,5.53
2018-03-18T04:13:53.851Z,7.10
2018-03-18T04:16:23.044Z,6.00
2018-03-18T04:18:51.664Z,6.45
2018-03-18T04:21:20.084Z,7.57
2018-03-18T04:23:48.666Z,6.40
2018-03-18T04:26:17.601Z,8.50
2018-03-18T04:28:45.930Z,8.32
2018-03-18T04:31:14.641Z,3.45
2018-03-18T04:33:43.360Z,9.23
2018-03-18T04:36:12.499Z,7.20
2018-03-18T04:38:41.152Z,4.30
2018-03-18T04:41:10.820Z,8.43
2018-03-18T04:43:39.201Z,5.68
2018-03-18T04:46:09.427Z,8.60
2018-03-18T04:48:37.607Z,7.85
2018-03-18T04:51:05.778Z,7.82
2018-03-18T04:53:34.722Z,5.03
2018-03-18T04:56:03.857Z,6.53
2018-03-18T04:58:32.226Z,4.87
2018-03-18T05:01:00.909Z,5.62
2018-03-18T05:03:29.455Z,6.00
2018-03-18T05:05:58.207Z,6.07
2018-03-18T05:08:26.761Z,6.95
2018-03-18T05:10:56.163Z,8.13
2018-03-18T05:13:25.062Z,7.10
2018-03-18T05:15:53.635Z,7.85
2018-03-18T05:18:22.212Z,5.97
2018-03-18T05:20:50.855Z,7.12
2018-03-18T05:23:19.707Z,6.70
2018-03-18T05:25:49.216Z,5.75
2018-03-18T05:28:18.366Z,4.75
2018-03-18T05:30:47.104Z,4.53
2018-03-18T05:33:15.755Z,6.82
2018-03-18T05:35:44.539Z,5.95
2018-03-18T05:38:13.749Z,6.47
2018-03-18T05:40:42.840Z,5.78
2018-03-18T05:43:12.053Z,5.37
2018-03-18T05:45:40.650Z,5.28
2018-03-18T05:48:09.414Z,7.97
2018-03-18T05:50:39.333Z,6.03
2018-03-18T05:53:08.002Z,7.28
2018-03-18T05:55:37.310Z,7.78
2018-03-18T05:58:07.761Z,7.10
2018-03-18T06:00:36.494Z,4.65
2018-03-18T06:03:06.673Z,7.05
2018-03-18T06:05:35.943Z,6.30
2018-03-18T06:08:04.769Z,5.70
2018-03-18T06:10:35.530Z,5.28
2018-03-18T06:13:04.876Z,6.57
2018-03-18T06:15:33.865Z,6.50
2018-03-18T06:18:02.817Z,8.07
2018-03-18T06:20:32.150Z,7.18
2018-03-18T06:23:00.819Z,7.07
2018-03-18T06:25:30.602Z,7.65
2018-03-18T06:28:00.869Z,5.37
2018-03-18T06:30:29.455Z,7.53
2018-03-18T06:32:58.651Z,3.53
2018-03-18T06:35:28.047Z,6.18
2018-03-18T06:37:58.596Z,7.43
2018-03-18T06:40:28.912Z,5.87
2018-03-18T06:42:57.540Z,7.50
2018-03-18T06:45:28.107Z,7.43
2018-03-18T06:47:56.962Z,7.45
2018-03-18T06:50:27.277Z,7.57
2018-03-18T06:52:57.002Z,5.62
2018-03-18T06:55:25.531Z,6.40
2018-03-18T06:57:54.367Z,5.97
2018-03-18T07:00:24.069Z,5.50
2018-03-18T07:02:53.730Z,7.18
2018-03-18T07:05:22.878Z,7.45
2018-03-18T07:07:53.851Z,6.87
2018-03-18T07:10:23.503Z,6.20
2018-03-18T07:12:54.060Z,6.50
2018-03-18T07:15:23.098Z,6.32
2018-03-18T07:17:52.922Z,6.47
2018-03-18T07:20:22.558Z,7.22
2018-03-18T07:22:53.302Z,6.30
2018-03-18T07:25:23.237Z,7.15
2018-03-18T07:27:52.558Z,6.32
2018-03-18T07:30:22.045Z,6.95
2018-03-18T07:32:52.871Z,6.20
2018-03-18T07:35:22.934Z,7.43
2018-03-18T07:37:52.754Z,8.13
2018-03-18T07:40:22.561Z,7.30
2018-03-18T07:42:52.594Z,6.07
2018-03-18T07:45:23.178Z,6.00
2018-03-18T07:47:53.054Z,6.90
2018-03-18T07:50:22.883Z,7.10
2018-03-18T07:52:53.016Z,7.00
2018-03-18T07:55:21.981Z,7.03
2018-03-18T07:57:51.047Z,7.37
2018-03-18T08:00:20.185Z,5.70
2018-03-18T08:02:49.812Z,4.90
2018-03-18T08:05:19.190Z,7.47
2018-03-18T08:07:49.105Z,5.55
2018-03-18T08:10:18.678Z,5.25
2018-03-18T08:12:48.782Z,3.28
2018-03-18T08:15:17.987Z,6.78
2018-03-18T08:17:47.362Z,6.70
2018-03-18T08:20:17.644Z,6.15
2018-03-18T08:22:47.480Z,4.40
2018-03-18T08:25:16.726Z,4.07
2018-03-18T08:27:45.874Z,4.93
2018-03-18T08:30:16.410Z,4.03
2018-03-18T08:32:45.386Z,7.18
2018-03-18T08:35:15.484Z,6.60
2018-03-18T08:37:44.839Z,6.30
2018-03-18T08:40:15.633Z,6.90
2018-03-18T08:42:45.688Z,3.70
2018-03-18T08:45:14.897Z,7.35
2018-03-18T08:47:43.928Z,6.25
2018-03-18T08:50:13.104Z,7.35
2018-03-18T08:52:43.019Z,8.48
2018-03-18T08:55:13.408Z,5.82
2018-03-18T08:57:42.770Z,6.90
2018-03-18T09:00:12.424Z,6.70
2018-03-18T09:02:41.839Z,7.40
2018-03-18T09:05:11.943Z,5.60
2018-03-18T09:07:41.036Z,5.75
2018-03-18T09:10:10.212Z,6.32
2018-03-18T09:12:40.094Z,6.40
2018-03-18T09:15:09.726Z,7.47
2018-03-18T09:17:38.827Z,4.85
2018-03-18T09:20:08.457Z,7.03
2018-03-18T09:22:37.802Z,4.78
2018-03-18T09:25:07.819Z,6.20
2018-03-18T09:27:37.094Z,6.12
2018-03-18T09:30:06.394Z,6.80
2018-03-18T09:32:35.463Z,4.07
2018-03-18T09:35:04.773Z,4.50
2018-03-18T09:37:34.026Z,7.45
2018-03-18T09:40:03.336Z,7.10
2018-03-18T09:42:32.506Z,5.97
2018-03-18T09:45:01.544Z,6.28
2018-03-18T09:47:31.209Z,4.37
2018-03-18T09:50:00.149Z,4.68
2018-03-18T09:52:29.746Z,4.62
2018-03-18T09:54:59.012Z,6.18
2018-03-18T09:57:28.060Z,5.95
2018-03-18T09:59:58.476Z,5.78
2018-03-18T10:02:27.507Z,3.87
2018-03-18T10:04:57.256Z,6.00
2018-03-18T10:07:26.335Z,5.35
2018-03-18T10:09:55.227Z,4.15
2018-03-18T10:12:24.287Z,6.28
2018-03-18T10:14:53.275Z,5.80
2018-03-18T10:17:22.116Z,6.93
2018-03-18T10:19:51.257Z,5.93
2018-03-18T10:22:20.303Z,6.22
2018-03-18T10:24:49.264Z,5.97
2018-03-18T10:27:18.252Z,6.12
2018-03-18T10:29:48.488Z,5.55
2018-03-18T10:32:17.733Z,6.25
2018-03-18T10:34:47.935Z,5.90
2018-03-18T10:37:17.389Z,5.70
2018-03-18T10:39:47.635Z,3.92
2018-03-18T10:42:16.652Z,3.72
2018-03-18T10:44:45.705Z,6.25
2018-03-18T10:47:15.943Z,4.35
2018-03-18T10:49:45.120Z,6.53
2018-03-18T10:52:15.098Z,5.62
2018-03-18T10:54:44.429Z,4.82
2018-03-18T10:57:13.281Z,4.07
2018-03-18T10:59:44.161Z,3.90
2018-03-18T11:02:14.889Z,5.55
2018-03-18T11:04:44.624Z,5.68
2018-03-18T11:07:14.296Z,4.20
2018-03-18T11:09:43.651Z,5.37
2018-03-18T11:12:12.862Z,3.90
2018-03-18T11:14:42.328Z,5.53
2018-03-18T11:17:11.326Z,6.37
2018-03-18T11:19:40.397Z,2.62
2018-03-18T11:22:10.410Z,3.95
2018-03-18T11:24:39.316Z,5.03
2018-03-18T11:27:08.608Z,3.90
2018-03-18T11:29:38.428Z,4.78
2018-03-18T11:32:08.215Z,4.55
2018-03-18T11:34:37.108Z,5.93
2018-03-18T11:37:06.081Z,4.68
2018-03-18T11:39:35.104Z,4.28
2018-03-18T11:42:05.813Z,3.53
2018-03-18T11:44:34.891Z,3.97
2018-03-18T11:47:04.360Z,3.37
2018-03-18T11:49:33.701Z,3.40
2018-03-18T11:52:02.771Z,5.50
2018-03-18T11:54:31.918Z,4.70
2018-03-18T11:57:00.994Z,3.87
2018-03-18T11:59:30.875Z,4.62
2018-03-18T12:01:59.762Z,3.00
2018-03-18T12:04:28.621Z,4.25
2018-03-18T12:06:58.449Z,4.03
2018-03-18T12:09:27.469Z,5.07
2018-03-18T12:11:57.293Z,4.97
2018-03-18T12:14:26.286Z,3.97
2018-03-18T12:16:56.238Z,5.93
2018-03-18T12:19:25.472Z,3.40
2018-03-18T12:21:54.642Z,2.80
2018-03-18T12:24:24.857Z,4.70
2018-03-18T12:26:54.686Z,3.50
2018-03-18T12:29:23.566Z,4.05
2018-03-18T12:31:52.681Z,3.67
2018-03-18T12:34:21.748Z,4.57
2018-03-18T12:36:51.381Z,3.15
2018-03-18T12:39:21.288Z,3.50
2018-03-18T12:41:50.486Z,3.58
2018-03-18T12:44:21.262Z,2.92
2018-03-18T12:46:51.024Z,3.72
2018-03-18T12:49:21.505Z,3.95
2018-03-18T12:51:50.573Z,5.45
2018-03-18T12:54:19.945Z,3.83
2018-03-18T12:56:48.743Z,3.28
2018-03-18T12:59:17.952Z,2.87
2018-03-18T13:01:46.786Z,4.15
2018-03-18T13:04:16.242Z,3.05
2018-03-18T13:06:45.187Z,3.92
2018-03-18T13:09:14.060Z,3.95
2018-03-18T13:11:43.101Z,5.53
2018-03-18T13:14:12.254Z,4.90
2018-03-18T13:16:41.555Z,4.97
2018-03-18T13:19:10.420Z,2.95
2018-03-18T13:21:40.000Z,5.12
2018-03-18T13:24:09.699Z,5.05
2018-03-18T13:26:39.432Z,3.30
2018-03-18T13:29:08.220Z,4.75
2018-03-18T13:31:37.007Z,3.37
2018-03-18T13:34:06.260Z,2.67
2018-03-18T13:36:35.320Z,5.20
2018-03-18T13:39:05.213Z,3.65
2018-03-18T13:41:34.128Z,2.92
2018-03-18T13:44:03.933Z,4.47
2018-03-18T13:46:35.610Z,4.70
2018-03-18T13:49:05.240Z,3.15
2018-03-18T13:51:35.200Z,5.40
2018-03-18T13:54:05.274Z,5.85
2018-03-18T13:56:34.748Z,2.97
2018-03-18T13:59:03.583Z,3.95
2018-03-18T14:01:33.683Z,3.37
2018-03-18T14:04:03.264Z,4.00
2018-03-18T14:06:32.381Z,3.92
2018-03-18T14:09:02.140Z,3.47
2018-03-18T14:11:30.980Z,3.47
2018-03-18T14:14:00.463Z,3.35
2018-03-18T14:16:29.497Z,3.72
2018-03-18T14:18:59.140Z,4.18
2018-03-18T14:21:28.188Z,5.07
2018-03-18T14:23:57.900Z,4.18
2018-03-18T14:26:27.511Z,5.30
2018-03-18T14:28:57.327Z,3.83
2018-03-18T14:31:26.774Z,2.33
2018-03-18T14:33:56.772Z,2.62
2018-03-18T14:36:25.704Z,3.70
2018-03-18T14:38:54.523Z,4.50
2018-03-18T14:41:24.180Z,2.62
2018-03-18T14:43:53.280Z,3.53
2018-03-18T14:46:22.479Z,3.45
2018-03-18T14:48:52.056Z,3.90
2018-03-18T14:51:21.538Z,4.25
2018-03-18T14:53:51.278Z,4.37
2018-03-18T14:56:20.842Z,3.42
2018-03-18T14:58:50.554Z,3.50
2018-03-18T15:01:20.334Z,3.85
2018-03-18T15:03:49.151Z,2.33
2018-03-18T15:06:18.612Z,3.17
2018-03-18T15:08:47.959Z,4.22
2018-03-18T15:11:18.170Z,3.53
2018-03-18T15:13:47.596Z,2.97
2018-03-18T15:16:16.378Z,4.57
2018-03-18T15:18:45.046Z,3.50
2018-03-18T15:21:14.557Z,4.85
2018-03-18T15:23:44.050Z,2.45
2018-03-18T15:26:12.853Z,2.30
2018-03-18T15:28:42.378Z,3.72
2018-03-18T15:31:11.397Z,2.35
2018-03-18T15:33:40.106Z,2.28
2018-03-18T15:36:08.924Z,4.85
2018-03-18T15:38:39.354Z,4.12
2018-03-18T15:41:08.862Z,4.72
2018-03-18T15:43:38.352Z,4.90
2018-03-18T15:46:07.789Z,4.70
2018-03-18T15:48:36.672Z,3.90
2018-03-18T15:51:05.838Z,2.75
2018-03-18T15:53:35.244Z,2.30
2018-03-18T15:56:04.893Z,2.97
2018-03-18T15:58:33.688Z,3.53
2018-03-18T16:01:02.335Z,2.55
2018-03-18T16:03:31.598Z,2.67
2018-03-18T16:06:00.791Z,2.50
2018-03-18T16:08:30.423Z,2.00
2018-03-18T16:11:00.017Z,3.53
2018-03-18T16:13:29.327Z,2.75
2018-03-18T16:15:58.638Z,2.70
2018-03-18T16:18:28.813Z,3.00
2018-03-18T16:20:58.117Z,2.67
2018-03-18T16:23:26.992Z,2.72
2018-03-18T16:25:55.778Z,2.45
2018-03-18T16:28:24.847Z,2.37
2018-03-18T16:31:10.181Z,1.67
2018-03-18T16:33:38.753Z,3.03
2018-03-18T16:36:07.408Z,3.60
2018-03-18T16:38:36.161Z,2.83
2018-03-18T16:41:04.768Z,2.40
2018-03-18T16:43:34.369Z,3.33
2018-03-18T16:46:03.117Z,2.70
2018-03-18T16:48:31.897Z,2.72
2018-03-18T16:51:01.364Z,3.22
2018-03-18T16:53:30.169Z,2.37
2018-03-18T16:55:58.966Z,2.55
2018-03-18T16:58:27.769Z,2.83
2018-03-18T17:00:56.623Z,2.95
2018-03-18T17:03:25.584Z,3.12
2018-03-18T17:05:54.886Z,3.20
2018-03-18T17:08:23.779Z,2.80
2018-03-18T17:10:52.693Z,3.85
2018-03-18T17:13:21.571Z,2.33
2018-03-18T17:15:50.192Z,3.20
2018-03-18T17:18:19.257Z,2.35
2018-03-18T17:20:48.562Z,2.47
2018-03-18T17:23:17.180Z,2.08
2018-03-18T17:25:47.948Z,3.30
2018-03-18T17:28:16.439Z,3.65
2018-03-18T17:30:45.211Z,2.75
2018-03-18T17:33:14.711Z,3.25
2018-03-18T17:35:44.161Z,2.08
2018-03-18T17:38:12.949Z,2.72
2018-03-18T17:40:42.894Z,3.40
2018-03-18T17:43:11.652Z,3.78
2018-03-18T17:47:54.082Z,3.15
2018-03-18T17:50:31.998Z,3.55
2018-03-18T17:53:11.722Z,3.40
2018-03-18T17:55:40.703Z,3.80
2018-03-18T17:58:09.487Z,1.95
2018-03-18T18:00:38.188Z,2.10
2018-03-18T18:03:06.763Z,3.30
2018-03-18T18:05:35.306Z,2.97
2018-03-18T18:08:05.141Z,2.65
2018-03-18T18:10:34.081Z,3.12
2018-03-18T18:13:02.808Z,3.35
2018-03-18T18:15:31.721Z,3.25
2018-03-18T18:18:00.611Z,3.72
2018-03-18T18:20:29.586Z,3.05
2018-03-18T18:22:59.179Z,3.80
2018-03-18T18:25:27.909Z,3.60
2018-03-18T18:27:56.745Z,2.45
2018-03-18T18:30:26.254Z,2.80
2018-03-18T18:32:55.765Z,4.30
2018-03-18T18:35:24.447Z,3.47
2018-03-18T18:37:53.074Z,2.12
2018-03-18T18:40:21.857Z,4.12
2018-03-18T18:42:51.255Z,2.67
2018-03-18T18:45:20.576Z,3.45
2018-03-18T18:47:49.601Z,3.83
2018-03-18T18:50:19.135Z,4.70
2018-03-18T18:52:47.991Z,1.98
2018-03-18T18:55:17.358Z,4.37
2018-03-18T18:57:46.370Z,4.20
2018-03-18T19:00:15.250Z,3.35
2018-03-18T19:02:44.072Z,2.58
2018-03-18T19:05:13.510Z,3.92
2018-03-18T19:07:42.170Z,2.20
2018-03-18T19:10:10.983Z,4.10
2018-03-18T19:12:39.577Z,3.62
2018-03-18T19:15:08.918Z,2.97
2018-03-18T19:17:38.504Z,4.03
2018-03-18T19:20:07.049Z,4.40
2018-03-18T19:22:35.882Z,4.00
2018-03-18T19:25:04.830Z,2.67
2018-03-18T19:27:33.429Z,3.58
2018-03-18T19:30:01.956Z,3.30
2018-03-18T19:32:31.678Z,5.07
2018-03-18T19:35:00.837Z,4.37
2018-03-18T19:37:30.098Z,4.00
2018-03-18T19:39:58.970Z,3.40
2018-03-18T19:42:28.409Z,2.75
2018-03-18T19:44:57.332Z,3.08
2018-03-18T19:47:26.132Z,4.18
2018-03-18T19:49:56.524Z,3.47
2018-03-18T19:52:25.346Z,2.50
2018-03-18T19:54:54.683Z,3.70
2018-03-18T19:57:23.441Z,2.83
2018-03-18T19:59:54.716Z,3.12
2018-03-18T20:02:23.613Z,3.67
2018-03-18T20:04:52.348Z,4.75
2018-03-18T20:07:22.036Z,5.10
2018-03-18T20:09:51.566Z,2.70
2018-03-18T20:12:21.030Z,3.28
2018-03-18T20:14:50.218Z,3.45
2018-03-18T20:17:18.979Z,2.92
2018-03-18T20:19:48.062Z,4.15
2018-03-18T20:22:17.167Z,2.53
2018-03-18T20:24:46.065Z,3.28
2018-03-18T20:27:15.914Z,3.78
2018-03-18T20:29:44.648Z,3.97
2018-03-18T20:32:14.272Z,3.53
2018-03-18T20:34:43.057Z,3.92
2018-03-18T20:37:12.494Z,2.67
2018-03-18T20:39:41.120Z,3.85
2018-03-18T20:42:10.269Z,5.05
2018-03-18T20:44:39.216Z,2.15
2018-03-18T20:47:08.204Z,4.00
2018-03-18T20:49:38.710Z,2.28
2018-03-18T20:52:07.760Z,3.47
2018-03-18T20:54:36.483Z,2.62
2018-03-18T20:57:06.099Z,3.08
2018-03-18T20:59:34.757Z,3.30
2018-03-18T21:02:04.422Z,4.45
2018-03-18T21:04:33.215Z,2.47
2018-03-18T21:07:02.140Z,3.47
2018-03-18T21:09:31.301Z,3.90
2018-03-18T21:12:00.484Z,3.17
2018-03-18T21:14:30.222Z,2.40
2018-03-18T21:16:58.904Z,4.95
2018-03-18T21:19:28.035Z,3.42
2018-03-18T21:21:57.914Z,3.28
2018-03-18T21:24:26.743Z,2.28
2018-03-18T21:26:55.603Z,3.05
2018-03-18T21:29:24.475Z,3.87
2018-03-18T21:31:53.854Z,3.40
2018-03-18T21:34:32.112Z,4.28
2018-03-18T21:37:01.342Z,3.92
2018-03-18T21:39:30.777Z,4.32
2018-03-18T21:42:01.001Z,3.50
2018-03-18T21:44:30.409Z,4.00
2018-03-18T21:47:00.273Z,4.70
2018-03-18T21:49:29.133Z,4.93
2018-03-18T21:51:58.215Z,3.47
2018-03-18T21:54:28.630Z,4.53
2018-03-18T21:56:57.621Z,3.53
2018-03-18T21:59:27.428Z,3.55
2018-03-18T22:01:57.290Z,4.78
2018-03-18T22:04:27.166Z,4.70
2018-03-18T22:06:56.557Z,3.08
2018-03-18T22:09:25.819Z,2.78
2018-03-18T22:11:55.095Z,2.72
2018-03-18T22:14:23.977Z,5.00
2018-03-18T22:16:53.348Z,4.07
2018-03-18T22:19:22.557Z,3.42
2018-03-18T22:21:51.455Z,3.97
2018-03-18T22:24:20.672Z,4.43
2018-03-18T22:26:49.539Z,4.22
2018-03-18T22:29:19.311Z,4.18
2018-03-18T22:31:49.358Z,3.35
2018-03-18T22:34:18.640Z,3.92
2018-03-18T22:36:47.945Z,3.50
2018-03-18T22:39:17.895Z,4.18
2018-03-18T22:41:48.059Z,3.53
2018-03-18T22:44:18.442Z,2.08
2018-03-18T22:46:48.078Z,2.67
2018-03-18T22:49:17.201Z,4.35
2018-03-18T22:51:47.556Z,4.87
2018-03-18T22:54:17.875Z,5.95
2018-03-18T22:56:47.053Z,3.42
2018-03-18T22:59:17.347Z,4.37
2018-03-18T23:01:48.358Z,4.78
2018-03-18T23:04:18.578Z,3.42
2018-03-18T23:06:49.281Z,4.18
2018-03-18T23:09:18.485Z,2.33
2018-03-18T23:11:47.425Z,4.78
2018-03-18T23:14:16.612Z,3.85
2018-03-18T23:16:46.807Z,3.08
2018-03-18T23:19:16.423Z,3.53
2018-03-18T23:21:45.461Z,4.97
2018-03-18T23:24:16.111Z,2.65
2018-03-18T23:26:45.753Z,4.37
2018-03-18T23:29:14.974Z,3.85
2018-03-18T23:31:44.492Z,4.43
2018-03-18T23:34:14.845Z,3.30
2018-03-18T23:36:43.934Z,3.22
2018-03-18T23:39:14.778Z,3.50
2018-03-18T23:41:45.107Z,3.85
2018-03-18T23:44:14.482Z,3.35
2018-03-18T23:46:44.262Z,2.97
2018-03-18T23:49:14.618Z,3.05
2018-03-18T23:51:45.394Z,3.22
2018-03-18T23:54:15.108Z,2.87
2018-03-18T23:56:44.409Z,2.97
2018-03-18T23:59:13.910Z,3.83
